createdAt,value
2022-09-12T00:02:19.045Z,2.60
2022-09-12T00:05:21.580Z,3.30
2022-09-12T00:08:23.649Z,2.30
2022-09-12T00:11:27.041Z,2.47
2022-09-12T00:14:28.949Z,2.80
2022-09-12T00:17:30.872Z,2.58
2022-09-12T00:20:33.052Z,2.40
2022-09-12T00:23:35.153Z,2.47
2022-09-12T00:26:37.700Z,2.38
2022-09-12T00:29:39.604Z,2.47
2022-09-12T00:32:41.559Z,2.45
2022-09-12T00:35:53.054Z,2.28
2022-09-12T00:38:55.072Z,2.45
2022-09-12T00:41:57.022Z,2.38
2022-09-12T00:44:58.938Z,2.33
2022-09-12T00:48:04.816Z,2.38
2022-09-12T00:51:07.067Z,2.40
2022-09-12T00:54:15.404Z,2.75
2022-09-12T00:57:19.557Z,2.40
2022-09-12T01:00:25.054Z,2.40
2022-09-12T01:03:27.105Z,2.30
2022-09-12T01:06:35.484Z,2.30
2022-09-12T01:09:39.042Z,2.40
2022-09-12T01:12:42.763Z,2.60
2022-09-12T01:15:44.502Z,2.20
2022-09-12T01:18:59.747Z,2.55
2022-09-12T01:22:44.735Z,2.10
2022-09-12T01:26:15.693Z,2.38
2022-09-12T01:29:51.902Z,2.25
2022-09-12T01:33:09.117Z,2.30
2022-09-12T01:36:25.915Z,3.03
2022-09-12T01:43:35.852Z,3.05
2022-09-12T01:46:43.310Z,3.50
2022-09-12T01:49:56.136Z,3.30
2022-09-12T01:53:09.989Z,2.95
2022-09-12T01:56:28.864Z,2.78
2022-09-12T01:59:39.703Z,3.25
2022-09-12T02:03:02.368Z,3.00
2022-09-12T02:06:13.160Z,2.80
2022-09-12T02:09:41.896Z,2.75
2022-09-12T02:12:52.646Z,2.95
2022-09-12T02:16:03.210Z,3.22
2022-09-12T02:19:21.450Z,3.10
2022-09-12T02:22:26.712Z,3.40
2022-09-12T02:25:30.549Z,3.08
2022-09-12T02:28:36.198Z,3.05
2022-09-12T02:31:45.084Z,2.67
2022-09-12T02:34:55.234Z,2.50
2022-09-12T02:38:09.197Z,2.45
2022-09-12T02:41:14.223Z,2.50
2022-09-12T02:44:16.121Z,2.20
2022-09-12T02:47:25.973Z,2.15
2022-09-12T02:50:28.165Z,2.25
2022-09-12T02:53:29.951Z,2.15
2022-09-12T02:56:31.666Z,2.45
2022-09-12T02:59:33.553Z,2.15
2022-09-12T03:02:57.170Z,2.60
2022-09-12T03:06:02.162Z,2.58
2022-09-12T03:09:29.965Z,2.50
2022-09-12T03:13:00.932Z,2.63
2022-09-12T03:16:44.614Z,2.90
2022-09-12T03:19:55.606Z,2.78
2022-09-12T03:23:03.250Z,2.83
2022-09-12T03:26:16.417Z,2.92
2022-09-12T03:29:20.035Z,3.00
2022-09-12T03:32:40.828Z,3.17
2022-09-12T03:35:43.839Z,2.75
2022-09-12T03:38:45.711Z,2.70
2022-09-12T03:41:47.472Z,2.72
2022-09-12T03:44:49.043Z,2.40
2022-09-12T03:47:50.688Z,2.50
2022-09-12T03:50:52.379Z,2.70
2022-09-12T03:53:54.531Z,2.58
2022-09-12T03:56:56.292Z,2.83
2022-09-12T03:59:57.946Z,2.47
2022-09-12T04:02:59.674Z,2.42
2022-09-12T04:06:01.386Z,2.58
2022-09-12T04:09:03.882Z,2.53
2022-09-12T04:12:06.085Z,2.50
2022-09-12T04:15:08.509Z,2.47
2022-09-12T04:18:10.542Z,2.83
2022-09-12T04:21:16.647Z,2.50
2022-09-12T04:24:18.384Z,2.95
2022-09-12T04:27:20.108Z,2.70
2022-09-12T04:30:21.801Z,3.03
2022-09-12T04:33:23.714Z,3.58
2022-09-12T04:36:26.693Z,3.42
2022-09-12T04:39:28.374Z,3.35
2022-09-12T04:42:30.140Z,3.63
2022-09-12T04:45:31.850Z,3.28
2022-09-12T04:48:33.758Z,3.05
2022-09-12T04:51:37.145Z,3.00
2022-09-12T04:54:38.825Z,3.20
2022-09-12T04:57:40.800Z,2.90
2022-09-12T05:00:42.447Z,3.60
2022-09-12T05:03:44.793Z,3.22
2022-09-12T05:06:47.625Z,3.17
2022-09-12T05:09:49.399Z,3.38
2022-09-12T05:12:51.246Z,3.42
2022-09-12T05:15:57.389Z,3.13
2022-09-12T05:18:59.348Z,2.80
2022-09-12T05:22:01.061Z,2.95
2022-09-12T05:25:02.759Z,3.47
2022-09-12T05:28:04.465Z,3.50
2022-09-12T05:31:07.930Z,3.35
2022-09-12T05:34:10.444Z,3.60
2022-09-12T05:37:12.688Z,3.00
2022-09-12T05:40:17.847Z,3.30
2022-09-12T05:43:20.534Z,3.20
2022-09-12T05:46:25.751Z,3.10
2022-09-12T05:49:27.536Z,3.10
2022-09-12T05:52:29.405Z,3.25
2022-09-12T05:55:31.559Z,3.17
2022-09-12T05:58:35.096Z,3.13
2022-09-12T06:01:36.879Z,3.03
2022-09-12T06:04:40.996Z,3.03
2022-09-12T06:07:42.681Z,2.88
2022-09-12T06:10:44.323Z,3.00
2022-09-12T06:13:46.144Z,3.00
2022-09-12T06:16:48.777Z,2.85
2022-09-12T06:19:51.098Z,3.40
2022-09-12T06:22:56.046Z,3.50
2022-09-12T06:25:57.779Z,3.17
2022-09-12T06:29:01.149Z,3.80
2022-09-12T06:32:02.987Z,4.97
2022-09-12T06:35:05.636Z,6.28
2022-09-12T06:38:07.736Z,6.30
2022-09-12T06:41:12.327Z,4.15
2022-09-12T06:44:16.640Z,3.60
2022-09-12T06:47:18.291Z,3.47
2022-09-12T06:50:19.904Z,3.30
2022-09-12T06:53:21.681Z,3.05
2022-09-12T06:56:25.567Z,3.40
2022-09-12T06:59:27.239Z,3.47
2022-09-12T07:02:29.000Z,3.15
2022-09-12T07:05:30.610Z,3.60
2022-09-12T07:08:34.238Z,3.25
2022-09-12T07:11:38.149Z,3.25
2022-09-12T07:14:39.849Z,3.33
2022-09-12T07:17:42.090Z,3.55
2022-09-12T07:20:44.034Z,3.63
2022-09-12T07:23:46.221Z,3.70
2022-09-12T07:26:47.920Z,3.53
2022-09-12T07:29:50.085Z,3.67
2022-09-12T07:32:55.224Z,3.85
2022-09-12T07:36:03.769Z,3.42
2022-09-12T07:39:06.029Z,3.40
2022-09-12T07:42:07.912Z,3.35
2022-09-12T07:45:10.310Z,3.20
2022-09-12T07:48:12.004Z,3.97
2022-09-12T07:51:13.662Z,3.38
2022-09-12T07:54:15.863Z,3.72
2022-09-12T07:57:17.536Z,3.50
2022-09-12T08:00:19.609Z,3.67
2022-09-12T08:03:21.256Z,3.90
2022-09-12T08:06:24.305Z,3.75
2022-09-12T08:09:26.014Z,3.88
2022-09-12T08:12:28.206Z,3.90
2022-09-12T08:15:31.260Z,4.18
2022-09-12T08:18:33.393Z,3.50
2022-09-12T08:21:35.276Z,3.45
2022-09-12T08:24:39.267Z,4.28
2022-09-12T08:27:43.077Z,3.88
2022-09-12T08:30:44.816Z,3.65
2022-09-12T08:33:46.867Z,3.50
2022-09-12T08:36:48.537Z,3.33
2022-09-12T08:39:50.158Z,3.70
2022-09-12T08:43:05.826Z,3.78
2022-09-12T08:46:27.670Z,3.75
2022-09-12T08:49:44.549Z,3.67
2022-09-12T08:53:04.488Z,3.40
2022-09-12T08:56:09.242Z,3.42
2022-09-12T08:59:10.973Z,3.97
2022-09-12T09:02:28.811Z,3.33
2022-09-12T09:05:51.540Z,3.00
2022-09-12T09:09:18.419Z,3.40
2022-09-12T09:12:39.160Z,3.25
2022-09-12T09:15:59.729Z,3.63
2022-09-12T09:19:06.615Z,3.72
2022-09-12T09:22:16.877Z,3.65
2022-09-12T09:25:25.668Z,3.35
2022-09-12T09:28:52.895Z,4.60
2022-09-12T09:31:58.597Z,5.18
2022-09-12T09:35:36.511Z,3.45
2022-09-12T09:39:00.318Z,4.05
2022-09-12T09:42:30.456Z,3.10
2022-09-12T09:45:32.451Z,4.13
2022-09-12T09:48:37.137Z,3.42
2022-09-12T09:51:41.701Z,2.92
2022-09-12T09:54:50.203Z,2.97
2022-09-12T09:57:53.379Z,3.03
2022-09-12T10:01:00.105Z,3.22
2022-09-12T10:04:01.867Z,3.30
2022-09-12T10:07:04.542Z,3.00
2022-09-12T10:10:22.838Z,3.20
2022-09-12T10:13:53.369Z,3.08
2022-09-12T10:16:55.291Z,3.20
2022-09-12T10:20:17.543Z,2.90
2022-09-12T10:23:19.669Z,3.05
2022-09-12T10:26:24.442Z,3.15
2022-09-12T10:29:30.336Z,3.20
2022-09-12T10:35:48.052Z,3.00
2022-09-12T10:38:52.899Z,2.97
2022-09-12T10:41:55.568Z,3.20
2022-09-12T10:44:57.200Z,3.00
2022-09-12T10:48:22.003Z,2.80
2022-09-12T10:51:23.630Z,3.13
2022-09-12T10:54:28.017Z,3.10
2022-09-12T10:57:54.965Z,2.80
2022-09-12T11:01:23.454Z,2.65
2022-09-12T11:04:50.128Z,2.80
2022-09-12T11:08:03.557Z,2.90
2022-09-12T11:11:39.277Z,2.85
2022-09-12T11:14:50.066Z,2.60
2022-09-12T11:18:03.690Z,2.97
2022-09-12T11:21:31.774Z,2.53
2022-09-12T11:24:59.076Z,2.60
2022-09-12T11:28:28.725Z,2.67
2022-09-12T11:31:55.418Z,2.47
2022-09-12T11:35:24.689Z,2.65
2022-09-12T11:38:34.147Z,2.55
2022-09-12T11:41:39.770Z,2.50
2022-09-12T11:47:55.883Z,2.55
2022-09-12T11:50:59.859Z,2.65
2022-09-12T11:54:23.316Z,2.60
2022-09-12T11:57:47.409Z,2.30
2022-09-12T12:00:56.362Z,2.35
2022-09-12T12:04:03.869Z,2.58
2022-09-12T12:07:10.699Z,3.78
2022-09-12T12:10:43.320Z,2.22
2022-09-12T12:13:57.234Z,2.15
2022-09-12T12:16:59.289Z,2.40
2022-09-12T12:20:07.675Z,2.17
2022-09-12T12:23:29.566Z,2.00
2022-09-12T12:26:43.565Z,2.25
2022-09-12T12:29:45.469Z,2.17
2022-09-12T12:32:47.368Z,2.10
2022-09-12T12:36:01.612Z,2.08
2022-09-12T12:39:34.084Z,1.88
2022-09-12T12:42:35.677Z,2.08
2022-09-12T12:45:37.286Z,1.90
2022-09-12T12:49:18.750Z,1.75
2022-09-12T12:52:29.185Z,1.90
2022-09-12T12:55:45.627Z,1.90
2022-09-12T12:58:47.430Z,1.73
2022-09-12T13:01:55.159Z,1.85
2022-09-12T13:04:59.872Z,1.90
2022-09-12T13:08:12.029Z,1.88
2022-09-12T13:11:28.658Z,1.80
2022-09-12T13:14:59.367Z,1.90
2022-09-12T13:18:04.312Z,1.75
2022-09-12T13:21:14.525Z,1.90
2022-09-12T13:24:17.185Z,1.67
2022-09-12T13:27:26.415Z,1.80
2022-09-12T13:30:31.510Z,1.80
2022-09-12T13:33:39.466Z,1.67
2022-09-12T13:36:53.089Z,1.65
2022-09-12T13:40:32.518Z,1.88
2022-09-12T13:43:43.566Z,1.80
2022-09-12T13:46:45.922Z,1.63
2022-09-12T13:49:48.475Z,1.80
2022-09-12T13:52:55.039Z,1.90
2022-09-12T13:55:59.206Z,1.77
2022-09-12T13:59:02.617Z,1.60
2022-09-12T14:02:20.729Z,1.80
2022-09-12T14:05:26.274Z,1.70
2022-09-12T14:08:27.940Z,1.58
2022-09-12T14:11:33.871Z,1.60
2022-09-12T14:14:43.971Z,1.40
2022-09-12T14:17:54.849Z,1.50
2022-09-12T14:21:02.021Z,1.60
2022-09-12T14:24:06.272Z,1.55
2022-09-12T14:27:07.955Z,1.52
2022-09-12T14:30:22.943Z,1.50
2022-09-12T14:33:24.635Z,1.60
2022-09-12T14:36:33.959Z,1.52
2022-09-12T14:39:44.095Z,1.55
2022-09-12T14:42:46.921Z,1.50
2022-09-12T14:46:01.342Z,1.60
2022-09-12T14:49:14.193Z,1.70
2022-09-12T14:52:29.708Z,1.63
2022-09-12T14:58:34.284Z,1.48
2022-09-12T15:01:36.082Z,1.58
2022-09-12T15:04:42.707Z,1.48
2022-09-12T15:07:48.377Z,1.40
2022-09-12T15:10:50.697Z,1.42
2022-09-12T15:13:52.753Z,1.42
2022-09-12T15:16:54.477Z,1.55
2022-09-12T15:19:56.045Z,1.48
2022-09-12T15:22:57.981Z,1.40
2022-09-12T15:26:00.018Z,1.63
2022-09-12T15:29:01.625Z,1.50
2022-09-12T15:32:04.201Z,1.50
2022-09-12T15:35:25.616Z,1.52
2022-09-12T15:38:27.395Z,1.35
2022-09-12T15:41:38.629Z,1.60
2022-09-12T15:44:41.157Z,1.50
2022-09-12T15:47:43.030Z,1.50
2022-09-12T15:50:44.839Z,1.48
2022-09-12T15:53:48.466Z,1.50
2022-09-12T15:56:50.317Z,1.65
2022-09-12T15:59:52.698Z,1.50
2022-09-12T16:02:54.659Z,1.60
2022-09-12T16:06:02.631Z,1.60
2022-09-12T16:09:04.447Z,1.40
2022-09-12T16:12:06.547Z,1.73
2022-09-12T16:15:12.415Z,1.48
2022-09-12T16:18:14.201Z,1.48
2022-09-12T16:21:16.212Z,1.60
2022-09-12T16:24:17.857Z,1.50
2022-09-12T16:27:19.711Z,1.48
2022-09-12T16:30:21.441Z,1.60
2022-09-12T16:33:23.184Z,1.70
2022-09-12T16:36:24.829Z,1.67
2022-09-12T16:39:26.441Z,1.77
2022-09-12T16:42:30.513Z,1.73
2022-09-12T16:45:32.714Z,1.60
2022-09-12T16:48:34.725Z,1.70
2022-09-12T16:51:36.844Z,1.50
2022-09-12T16:54:48.174Z,1.67
2022-09-12T16:57:49.982Z,1.48
2022-09-12T17:01:03.525Z,1.52
2022-09-12T17:04:05.537Z,1.70
2022-09-12T17:07:08.016Z,1.83
2022-09-12T17:10:10.059Z,1.70
2022-09-12T17:13:11.936Z,1.70
2022-09-12T17:16:14.101Z,1.52
2022-09-12T17:19:22.115Z,1.70
2022-09-12T17:22:23.841Z,1.80
2022-09-12T17:25:27.850Z,1.70
2022-09-12T17:28:29.723Z,1.58
2022-09-12T17:31:31.869Z,1.88
2022-09-12T17:34:33.511Z,1.75
2022-09-12T17:37:35.912Z,1.65
2022-09-12T17:40:58.593Z,1.73
2022-09-12T17:44:01.498Z,1.90
2022-09-12T17:47:05.165Z,1.85
2022-09-12T17:50:30.469Z,2.08
2022-09-12T17:53:29.189Z,1.80
2022-09-12T17:56:32.305Z,2.10
2022-09-12T17:59:34.011Z,1.80
2022-09-12T18:02:36.072Z,1.77
2022-09-12T18:05:45.512Z,1.77
2022-09-12T18:08:47.590Z,1.90
2022-09-12T18:11:50.269Z,1.98
2022-09-12T18:14:51.868Z,1.85
2022-09-12T18:17:53.897Z,2.00
2022-09-12T18:20:55.583Z,1.80
2022-09-12T18:23:59.299Z,1.90
2022-09-12T18:27:02.045Z,1.90
2022-09-12T18:30:20.541Z,1.90
2022-09-12T18:33:24.306Z,2.03
2022-09-12T18:36:26.620Z,2.10
2022-09-12T18:39:28.395Z,1.85
2022-09-12T18:42:30.056Z,1.88
2022-09-12T18:45:31.759Z,1.75
2022-09-12T18:48:33.976Z,1.80
2022-09-12T18:51:37.008Z,1.60
2022-09-12T18:54:38.628Z,1.88
2022-09-12T18:57:42.148Z,1.70
2022-09-12T19:00:48.065Z,1.83
2022-09-12T19:06:51.423Z,1.63
2022-09-12T19:09:53.136Z,1.50
2022-09-12T19:12:55.728Z,1.65
2022-09-12T19:15:57.686Z,1.55
2022-09-12T19:18:59.845Z,1.65
2022-09-12T19:22:01.551Z,1.60
2022-09-12T19:25:03.360Z,1.50
2022-09-12T19:28:05.376Z,1.60
2022-09-12T19:31:08.913Z,1.70
2022-09-12T19:34:12.197Z,1.63
2022-09-12T19:37:13.832Z,1.60
2022-09-12T19:40:15.584Z,1.50
2022-09-12T19:43:17.276Z,1.70
2022-09-12T19:46:21.698Z,1.58
2022-09-12T19:49:23.312Z,1.63
2022-09-12T19:52:25.133Z,1.73
2022-09-12T19:55:26.760Z,1.73
2022-09-12T19:58:29.605Z,1.77
2022-09-12T20:01:31.577Z,1.80
2022-09-12T20:04:33.663Z,2.00
2022-09-12T20:07:35.384Z,1.98
2022-09-12T20:10:37.401Z,2.00
2022-09-12T20:13:39.040Z,2.15
2022-09-12T20:16:40.903Z,1.90
2022-09-12T20:19:42.498Z,1.88
2022-09-12T20:22:44.123Z,2.00
2022-09-12T20:25:45.844Z,2.05
2022-09-12T20:28:47.516Z,2.20
2022-09-12T20:31:49.208Z,2.10
2022-09-12T20:34:51.737Z,2.00
2022-09-12T20:37:53.360Z,2.00
2022-09-12T20:40:54.979Z,1.90
2022-09-12T20:43:57.539Z,1.95
2022-09-12T20:46:59.784Z,1.95
2022-09-12T20:50:01.581Z,1.90
2022-09-12T20:53:03.321Z,1.80
2022-09-12T20:56:07.850Z,1.98
2022-09-12T20:59:12.206Z,1.98
2022-09-12T21:02:15.169Z,1.90
2022-09-12T21:05:17.152Z,1.90
2022-09-12T21:08:18.785Z,2.20
2022-09-12T21:11:21.250Z,1.85
2022-09-12T21:14:23.163Z,2.10
2022-09-12T21:17:25.214Z,1.88
2022-09-12T21:20:26.869Z,2.17
2022-09-12T21:23:29.005Z,2.08
2022-09-12T21:26:31.372Z,1.98
2022-09-12T21:29:33.111Z,2.08
2022-09-12T21:32:36.009Z,1.90
2022-09-12T21:35:37.914Z,2.10
2022-09-12T21:38:39.746Z,1.80
2022-09-12T21:41:41.380Z,2.03
2022-09-12T21:44:43.104Z,1.90
2022-09-12T21:47:45.337Z,1.73
2022-09-12T21:50:50.592Z,1.80
2022-09-12T21:53:52.637Z,1.80
2022-09-12T21:56:54.524Z,2.03
2022-09-12T21:59:56.469Z,1.83
2022-09-12T22:02:59.199Z,1.63
2022-09-12T22:06:03.838Z,1.80
2022-09-12T22:09:07.489Z,1.77
2022-09-12T22:12:09.227Z,1.90
2022-09-12T22:15:36.365Z,1.75
2022-09-12T22:18:34.402Z,1.63
2022-09-12T22:21:56.179Z,1.55
2022-09-12T22:24:57.913Z,1.73
2022-09-12T22:27:59.831Z,1.50
2022-09-12T22:31:01.680Z,1.65
2022-09-12T22:34:04.146Z,1.70
2022-09-12T22:37:06.318Z,1.88
2022-09-12T22:40:08.965Z,1.80
2022-09-12T22:43:11.573Z,1.70
2022-09-12T22:46:13.353Z,1.70
2022-09-12T22:49:15.283Z,1.70
2022-09-12T22:52:17.581Z,1.80
2022-09-12T22:55:19.297Z,1.90
2022-09-12T22:58:21.074Z,1.70
2022-09-12T23:01:23.999Z,2.00
2022-09-12T23:04:25.727Z,1.90
2022-09-12T23:07:27.462Z,1.60
2022-09-12T23:10:29.042Z,1.70
2022-09-12T23:13:31.110Z,1.63
2022-09-12T23:16:33.157Z,1.80
2022-09-12T23:19:34.797Z,1.60
2022-09-12T23:22:37.295Z,1.70
2022-09-12T23:25:38.926Z,1.63
2022-09-12T23:28:42.246Z,1.73
2022-09-12T23:31:44.215Z,1.60
2022-09-12T23:34:46.867Z,1.83
2022-09-12T23:37:48.498Z,1.50
2022-09-12T23:40:50.129Z,1.50
2022-09-12T23:43:51.811Z,1.70
2022-09-12T23:46:53.496Z,1.80
2022-09-12T23:49:55.154Z,1.77
2022-09-12T23:52:56.841Z,1.83
2022-09-12T23:55:59.322Z,1.92
2022-09-12T23:59:00.939Z,1.80
